createdAt,value
2023-01-17T00:02:22.005Z,98544.38
2023-01-17T00:05:08.416Z,98534.25
2023-01-17T00:07:54.654Z,98537.03
2023-01-17T00:10:25.142Z,98537.69
2023-01-17T00:12:57.884Z,98525.47
2023-01-17T00:15:27.123Z,98527.12
2023-01-17T00:17:55.275Z,98518.78
2023-01-17T00:20:46.990Z,98534.47
2023-01-17T00:23:34.783Z,98536.78
2023-01-17T00:26:05.465Z,98545.13
2023-01-17T00:28:38.796Z,98539.72
2023-01-17T00:31:09.030Z,98552.31
2023-01-17T00:33:37.215Z,98555.72
2023-01-17T00:36:05.584Z,98552.97
2023-01-17T00:38:37.038Z,98543.16
2023-01-17T00:41:13.141Z,98551.84
2023-01-17T00:43:59.809Z,98545.81
2023-01-17T00:46:46.351Z,98544.69
2023-01-17T00:49:32.203Z,98536.72
2023-01-17T00:52:19.238Z,98528.72
2023-01-17T00:55:04.930Z,98534.75
2023-01-17T00:57:50.959Z,98531.53
2023-01-17T01:00:37.945Z,98534.97
2023-01-17T01:03:30.736Z,98532.53
2023-01-17T01:06:16.733Z,98540.88
2023-01-17T01:09:03.571Z,98547.75
2023-01-17T01:11:49.498Z,98559.47
2023-01-17T01:14:35.874Z,98567.31
2023-01-17T01:17:21.994Z,98559.69
2023-01-17T01:20:10.438Z,98549.94
2023-01-17T01:22:56.221Z,98546.34
2023-01-17T01:25:42.529Z,98537.91
2023-01-17T01:28:30.980Z,98532.06
2023-01-17T01:31:22.012Z,98515.91
2023-01-17T01:33:53.243Z,98511.03
2023-01-17T01:36:21.660Z,98504.66
2023-01-17T01:38:50.327Z,98491.97
2023-01-17T01:41:18.112Z,98485.09
2023-01-17T01:43:51.568Z,98475.16
2023-01-17T01:46:41.233Z,98463.91
2023-01-17T01:49:21.377Z,98465.22
2023-01-17T01:51:56.282Z,98474.66
2023-01-17T01:54:34.427Z,98464.88
2023-01-17T01:57:05.673Z,98454.59
2023-01-17T01:59:35.012Z,98449.19
2023-01-17T02:02:02.844Z,98448.41
2023-01-17T02:04:30.696Z,98435.19
2023-01-17T02:07:13.019Z,98416.91
2023-01-17T02:09:41.210Z,98410.38
2023-01-17T02:12:09.277Z,98419.19
2023-01-17T02:14:36.667Z,98410.38
2023-01-17T02:17:04.277Z,98408.41
2023-01-17T02:20:07.255Z,98411.34
2023-01-17T02:22:34.913Z,98397.78
2023-01-17T02:25:04.911Z,98388.16
2023-01-17T02:27:47.999Z,98377.56
2023-01-17T02:30:33.052Z,98366.31
2023-01-17T02:33:17.692Z,98356.19
2023-01-17T02:36:13.126Z,98350.31
2023-01-17T02:38:43.702Z,98350.31
2023-01-17T02:41:19.644Z,98357.16
2023-01-17T02:43:50.480Z,98373.66
2023-01-17T02:46:18.358Z,98383.63
2023-01-17T02:48:47.834Z,98394.84
2023-01-17T02:51:38.975Z,98414.59
2023-01-17T02:54:31.528Z,98486.13
2023-01-17T02:57:23.214Z,98592.72
2023-01-17T03:00:37.456Z,98586.41
2023-01-17T03:03:27.140Z,98572.50
2023-01-17T03:05:58.203Z,98563.81
2023-01-17T03:08:26.739Z,98559.87
2023-01-17T03:10:54.752Z,98567.72
2023-01-17T03:13:22.687Z,98560.31
2023-01-17T03:15:50.480Z,98569.63
2023-01-17T03:18:18.088Z,98568.00
2023-01-17T03:20:45.894Z,98569.28
2023-01-17T03:23:13.403Z,98575.31
2023-01-17T03:25:40.839Z,98552.16
2023-01-17T03:28:09.077Z,98542.25
2023-01-17T03:30:36.597Z,98523.47
2023-01-17T03:33:04.104Z,98529.34
2023-01-17T03:35:34.589Z,98515.47
2023-01-17T03:38:02.232Z,98519.06
2023-01-17T03:40:29.674Z,98515.94
2023-01-17T03:42:57.347Z,98513.19
2023-01-17T03:45:24.818Z,98519.53
2023-01-17T03:47:53.833Z,98512.38
2023-01-17T03:50:21.551Z,98508.00
2023-01-17T03:52:48.980Z,98496.72
2023-01-17T03:55:16.748Z,98496.88
2023-01-17T03:57:44.613Z,98492.97
2023-01-17T04:00:12.775Z,98491.47
2023-01-17T04:02:40.598Z,98493.56
2023-01-17T04:05:08.623Z,98495.97
2023-01-17T04:07:36.154Z,98489.75
2023-01-17T04:10:04.418Z,98474.22
2023-01-17T04:12:31.925Z,98458.19
2023-01-17T04:14:59.413Z,98466.28
2023-01-17T04:17:27.301Z,98465.59
2023-01-17T04:19:54.800Z,98465.38
2023-01-17T04:22:22.442Z,98478.53
2023-01-17T04:24:50.178Z,98484.56
2023-01-17T04:27:17.797Z,98477.06
2023-01-17T04:29:46.727Z,98484.63
2023-01-17T04:32:14.938Z,98500.13
2023-01-17T04:34:42.332Z,98508.38
2023-01-17T04:37:10.079Z,98506.69
2023-01-17T04:39:37.847Z,98486.81
2023-01-17T04:42:05.342Z,98490.03
2023-01-17T04:44:32.767Z,98501.41
2023-01-17T04:47:02.064Z,98515.03
2023-01-17T04:49:29.518Z,98512.03
2023-01-17T04:51:56.971Z,98526.41
2023-01-17T04:54:24.717Z,98524.69
2023-01-17T04:56:52.117Z,98528.84
2023-01-17T04:59:19.678Z,98529.81
2023-01-17T05:01:49.327Z,98537.63
2023-01-17T05:04:16.861Z,98517.13
2023-01-17T05:06:44.858Z,98520.50
2023-01-17T05:09:12.737Z,98519.16
2023-01-17T05:11:40.154Z,98538.66
2023-01-17T05:14:07.701Z,98530.97
2023-01-17T05:16:35.405Z,98538.13
2023-01-17T05:19:02.899Z,98557.06
2023-01-17T05:21:31.558Z,98550.34
2023-01-17T05:23:59.727Z,98555.88
2023-01-17T05:26:27.205Z,98550.94
2023-01-17T05:28:54.791Z,98549.59
2023-01-17T05:31:22.774Z,98543.84
2023-01-17T05:33:50.350Z,98551.53
2023-01-17T05:36:19.219Z,98552.47
2023-01-17T05:38:48.922Z,98541.81
2023-01-17T05:41:16.538Z,98544.41
2023-01-17T05:43:44.024Z,98549.78
2023-01-17T05:46:11.860Z,98559.34
2023-01-17T05:48:39.305Z,98574.56
2023-01-17T05:51:06.720Z,98570.03
2023-01-17T05:53:35.150Z,98575.41
2023-01-17T05:56:02.612Z,98574.38
2023-01-17T05:58:30.209Z,98590.19
2023-01-17T06:00:58.890Z,98595.69
2023-01-17T06:03:27.553Z,98581.28
2023-01-17T06:05:55.029Z,98588.81
2023-01-17T06:08:23.548Z,98599.22
2023-01-17T06:10:51.373Z,98594.16
2023-01-17T06:13:21.958Z,98589.63
2023-01-17T06:15:49.701Z,98598.66
2023-01-17T06:18:18.182Z,98604.28
2023-01-17T06:20:45.713Z,98609.34
2023-01-17T06:23:14.886Z,98624.13
2023-01-17T06:25:44.958Z,98631.91
2023-01-17T06:28:14.461Z,98636.72
2023-01-17T06:30:43.917Z,98638.34
2023-01-17T06:33:12.999Z,98647.66
2023-01-17T06:35:43.144Z,98653.53
2023-01-17T06:38:10.557Z,98656.69
2023-01-17T06:40:38.327Z,98659.41
2023-01-17T06:43:05.801Z,98657.25
2023-01-17T06:45:35.265Z,98659.41
2023-01-17T06:48:04.191Z,98657.63
2023-01-17T06:50:33.211Z,98676.38
2023-01-17T06:53:03.924Z,98674.06
2023-01-17T06:55:33.771Z,98678.28
2023-01-17T06:58:03.113Z,98680.75
2023-01-17T07:00:35.167Z,98684.47
2023-01-17T07:03:03.281Z,98695.81
2023-01-17T07:05:30.896Z,98704.00
2023-01-17T07:07:58.636Z,98709.22
2023-01-17T07:10:26.393Z,98696.91
2023-01-17T07:12:59.736Z,98701.00
2023-01-17T07:15:27.775Z,98685.53
2023-01-17T07:17:55.325Z,98688.66
2023-01-17T07:20:22.809Z,98688.47
2023-01-17T07:22:54.959Z,98696.22
2023-01-17T07:25:22.424Z,98706.91
2023-01-17T07:27:54.002Z,98707.81
2023-01-17T07:30:21.702Z,98708.91
2023-01-17T07:32:54.090Z,98706.41
2023-01-17T07:35:22.663Z,98706.19
2023-01-17T07:37:51.084Z,98700.78
2023-01-17T07:40:20.065Z,98696.13
2023-01-17T07:42:48.438Z,98696.28
2023-01-17T07:45:16.861Z,98703.88
2023-01-17T07:47:44.545Z,98701.72
2023-01-17T07:50:13.650Z,98710.00
2023-01-17T07:52:41.536Z,98715.22
2023-01-17T07:55:09.724Z,98716.47
2023-01-17T07:57:38.083Z,98716.88
2023-01-17T08:00:06.161Z,98716.66
2023-01-17T08:02:39.549Z,98728.66
2023-01-17T08:05:07.612Z,98720.69
2023-01-17T08:07:35.365Z,98724.53
2023-01-17T08:10:03.037Z,98717.97
2023-01-17T08:12:30.782Z,98716.06
2023-01-17T08:14:58.202Z,98735.75
2023-01-17T08:17:26.160Z,98738.44
2023-01-17T08:19:53.950Z,98722.78
2023-01-17T08:22:21.511Z,98728.34
2023-01-17T08:24:49.024Z,98724.78
2023-01-17T08:27:16.741Z,98714.00
2023-01-17T08:29:47.257Z,98724.62
2023-01-17T08:32:15.483Z,98735.59
2023-01-17T08:34:43.262Z,98731.19
2023-01-17T08:37:10.702Z,98729.22
2023-01-17T08:39:38.326Z,98733.13
2023-01-17T08:42:06.281Z,98743.59
2023-01-17T08:44:33.901Z,98740.19
2023-01-17T08:47:01.554Z,98745.72
2023-01-17T08:49:29.371Z,98752.28
2023-01-17T08:51:56.920Z,98748.19
2023-01-17T08:54:24.387Z,98753.72
2023-01-17T08:56:53.037Z,98766.50
2023-01-17T08:59:20.800Z,98766.50
2023-01-17T09:01:48.438Z,98771.09
2023-01-17T09:04:16.976Z,98780.25
2023-01-17T09:06:46.569Z,98780.59
2023-01-17T09:09:16.130Z,98792.53
2023-01-17T09:11:44.145Z,98796.13
2023-01-17T09:14:12.814Z,98802.72
2023-01-17T09:16:40.230Z,98805.66
2023-01-17T09:19:09.076Z,98800.41
2023-01-17T09:21:36.638Z,98809.56
2023-01-17T09:24:04.186Z,98807.91
2023-01-17T09:26:31.946Z,98804.81
2023-01-17T09:28:59.513Z,98799.09
2023-01-17T09:31:27.697Z,98779.75
2023-01-17T09:33:56.998Z,98802.84
2023-01-17T09:36:29.181Z,98799.72
2023-01-17T09:39:01.341Z,98805.94
2023-01-17T09:41:34.554Z,98798.03
2023-01-17T09:44:29.186Z,98806.22
2023-01-17T09:47:06.767Z,98804.41
2023-01-17T09:49:43.811Z,98792.06
2023-01-17T09:52:23.702Z,98794.66
2023-01-17T09:54:51.761Z,98809.72
2023-01-17T09:57:44.657Z,98810.25
2023-01-17T10:00:34.575Z,98816.97
2023-01-17T10:03:27.136Z,98813.16
2023-01-17T10:06:30.458Z,98797.59
2023-01-17T10:09:22.963Z,98796.56
2023-01-17T10:12:09.376Z,98788.66
2023-01-17T10:15:18.826Z,98794.41
2023-01-17T10:17:57.252Z,98811.41
2023-01-17T10:20:41.269Z,98819.00
2023-01-17T10:23:43.558Z,98821.13
2023-01-17T10:26:27.606Z,98805.28
2023-01-17T10:29:05.220Z,98794.16
2023-01-17T10:31:43.132Z,98788.75
2023-01-17T10:34:19.350Z,98781.16
2023-01-17T10:36:53.252Z,98776.53
2023-01-17T10:39:22.976Z,98775.34
2023-01-17T10:41:58.505Z,98776.19
2023-01-17T10:44:44.165Z,98774.31
2023-01-17T10:47:11.900Z,98777.16
2023-01-17T10:49:48.980Z,98773.87
2023-01-17T10:52:19.643Z,98769.00
2023-01-17T10:54:54.476Z,98776.53
2023-01-17T10:57:27.539Z,98769.91
2023-01-17T10:59:59.806Z,98756.88
2023-01-17T11:02:36.669Z,98747.19
2023-01-17T11:05:18.461Z,98744.37
2023-01-17T11:08:06.954Z,98750.69
2023-01-17T11:10:44.746Z,98746.69
2023-01-17T11:13:36.920Z,98739.00
2023-01-17T11:16:10.111Z,98733.00
2023-01-17T11:18:39.870Z,98743.16
2023-01-17T11:21:29.598Z,98749.50
2023-01-17T11:23:57.509Z,98758.94
2023-01-17T11:26:31.181Z,98760.38
2023-01-17T11:29:31.840Z,98758.16
2023-01-17T11:32:22.245Z,98765.06
2023-01-17T11:35:10.273Z,98774.47
2023-01-17T11:37:37.845Z,98754.09
2023-01-17T11:40:28.063Z,98749.50
2023-01-17T11:43:21.055Z,98744.13
2023-01-17T11:46:24.092Z,98749.84
2023-01-17T11:48:56.001Z,98726.50
2023-01-17T11:51:31.672Z,98712.00
2023-01-17T11:54:28.679Z,98693.47
2023-01-17T11:56:58.345Z,98683.59
2023-01-17T11:59:31.764Z,98668.22
2023-01-17T12:02:01.194Z,98674.34
2023-01-17T12:04:42.844Z,98667.34
2023-01-17T12:07:17.734Z,98667.28
2023-01-17T12:09:56.398Z,98664.31
2023-01-17T12:13:03.895Z,98646.56
2023-01-17T12:16:23.539Z,98652.06
2023-01-17T12:19:02.527Z,98649.81
2023-01-17T12:21:58.845Z,98660.37
2023-01-17T12:24:35.478Z,98653.03
2023-01-17T12:27:20.280Z,98642.41
2023-01-17T12:30:30.898Z,98653.53
2023-01-17T12:33:13.218Z,98661.44
2023-01-17T12:35:53.573Z,98655.91
2023-01-17T12:38:32.780Z,98644.06
2023-01-17T12:41:07.148Z,98648.12
2023-01-17T12:43:40.713Z,98640.78
2023-01-17T12:46:32.582Z,98650.44
2023-01-17T12:49:16.546Z,98645.91
2023-01-17T12:51:47.442Z,98634.31
2023-01-17T12:54:40.100Z,98626.50
2023-01-17T12:57:28.864Z,98623.44
2023-01-17T13:00:04.608Z,98622.97
2023-01-17T13:02:54.227Z,98623.69
2023-01-17T13:05:36.165Z,98616.56
2023-01-17T13:08:22.100Z,98616.06
2023-01-17T13:11:14.541Z,98615.63
2023-01-17T13:13:44.181Z,98608.81
2023-01-17T13:16:24.161Z,98593.97
2023-01-17T13:18:54.501Z,98583.69
2023-01-17T13:21:32.759Z,98579.38
2023-01-17T13:24:16.020Z,98577.31
2023-01-17T13:26:57.709Z,98575.31
2023-01-17T13:29:32.790Z,98583.87
2023-01-17T13:32:28.383Z,98578.66
2023-01-17T13:35:27.906Z,98576.72
2023-01-17T13:38:13.844Z,98570.84
2023-01-17T13:40:44.317Z,98581.44
2023-01-17T13:43:18.511Z,98571.44
2023-01-17T13:46:12.065Z,98564.94
2023-01-17T13:48:40.958Z,98558.25
2023-01-17T13:51:10.335Z,98549.19
2023-01-17T13:53:46.244Z,98546.31
2023-01-17T13:56:25.062Z,98541.06
2023-01-17T13:58:54.722Z,98535.59
2023-01-17T14:01:22.664Z,98537.13
2023-01-17T14:03:50.627Z,98531.91
2023-01-17T14:06:33.037Z,98527.53
2023-01-17T14:09:47.602Z,98520.81
2023-01-17T14:12:18.943Z,98517.41
2023-01-17T14:14:52.152Z,98502.38
2023-01-17T14:17:23.227Z,98500.47
2023-01-17T14:19:53.756Z,98491.59
2023-01-17T14:22:21.196Z,98488.97
2023-01-17T14:25:02.664Z,98478.38
2023-01-17T14:27:38.584Z,98476.84
2023-01-17T14:30:16.444Z,98472.78
2023-01-17T14:32:59.177Z,98478.72
2023-01-17T14:35:34.330Z,98472.66
2023-01-17T14:38:03.341Z,98467.78
2023-01-17T14:40:38.474Z,98470.59
2023-01-17T14:43:11.883Z,98470.41
2023-01-17T14:45:41.329Z,98464.88
2023-01-17T14:48:21.359Z,98460.69
2023-01-17T14:50:50.829Z,98456.00
2023-01-17T14:53:20.318Z,98461.47
2023-01-17T14:55:47.801Z,98455.25
2023-01-17T14:58:33.117Z,98455.94
2023-01-17T15:01:11.287Z,98448.44
2023-01-17T15:03:48.926Z,98443.53
2023-01-17T15:06:20.702Z,98432.78
2023-01-17T15:08:50.241Z,98424.84
2023-01-17T15:11:29.994Z,98429.47
2023-01-17T15:14:02.071Z,98421.97
2023-01-17T15:16:37.309Z,98414.91
2023-01-17T15:19:14.009Z,98423.44
2023-01-17T15:21:44.144Z,98407.06
2023-01-17T15:24:25.410Z,98399.09
2023-01-17T15:26:53.461Z,98396.97
2023-01-17T15:29:26.881Z,98399.38
2023-01-17T15:32:00.757Z,98394.44
2023-01-17T15:34:32.203Z,98392.97
2023-01-17T15:37:03.772Z,98373.00
2023-01-17T15:39:39.437Z,98379.56
2023-01-17T15:42:19.462Z,98377.44
2023-01-17T15:44:52.824Z,98370.22
2023-01-17T15:47:38.014Z,98366.28
2023-01-17T15:50:22.858Z,98362.69
2023-01-17T15:53:01.104Z,98363.00
2023-01-17T15:55:37.627Z,98337.66
2023-01-17T15:58:25.753Z,98332.06
2023-01-17T16:00:54.191Z,98331.44
2023-01-17T16:03:30.248Z,98313.88
2023-01-17T16:06:00.680Z,98304.53
2023-01-17T16:08:31.915Z,98294.56
2023-01-17T16:23:17.293Z,98207.06
2023-01-17T16:25:46.223Z,98207.06
2023-01-17T16:28:13.719Z,98203.38
2023-01-17T16:30:41.446Z,98192.91
2023-01-17T16:33:13.105Z,98175.44
2023-01-17T16:35:42.990Z,98167.44
2023-01-17T16:38:14.128Z,98168.25
2023-01-17T16:40:46.565Z,98156.31
2023-01-17T16:43:18.171Z,98153.69
2023-01-17T16:45:48.368Z,98153.25
2023-01-17T16:51:06.219Z,98151.00
2023-01-17T16:53:35.624Z,98153.78
2023-01-17T16:56:15.534Z,98138.25
2023-01-17T16:58:43.527Z,98146.28
2023-01-17T17:01:17.255Z,98142.66
2023-01-17T17:03:45.280Z,98138.59
2023-01-17T17:06:13.288Z,98140.25
2023-01-17T17:08:41.633Z,98132.56
2023-01-17T17:11:16.733Z,98126.50
2023-01-17T17:13:49.602Z,98120.91
2023-01-17T17:16:24.209Z,98110.53
2023-01-17T17:18:57.236Z,98098.78
2023-01-17T17:21:25.436Z,98082.06
2023-01-17T17:23:56.906Z,98087.16
2023-01-17T17:26:27.485Z,98079.19
2023-01-17T17:28:55.154Z,98078.84
2023-01-17T17:31:23.417Z,98060.41
2023-01-17T17:33:52.321Z,98046.41
2023-01-17T17:36:20.794Z,98051.63
2023-01-17T17:38:51.416Z,98060.75
2023-01-17T17:41:27.792Z,98060.50
2023-01-17T17:43:55.827Z,98051.38
2023-01-17T17:46:26.075Z,98040.53
2023-01-17T17:48:53.696Z,98032.69
2023-01-17T17:51:30.637Z,98033.84
2023-01-17T17:54:01.283Z,98021.38
2023-01-17T17:56:30.815Z,98016.16
2023-01-17T17:59:00.002Z,98010.91
2023-01-17T18:01:28.073Z,97996.75
2023-01-17T18:04:00.414Z,97985.28
2023-01-17T18:06:28.277Z,97987.78
2023-01-17T18:08:56.089Z,97968.66
2023-01-17T18:11:26.143Z,97958.41
2023-01-17T18:13:56.026Z,97943.97
2023-01-17T18:16:32.905Z,97940.38
2023-01-17T18:19:01.305Z,97922.84
2023-01-17T18:21:36.844Z,97916.59
2023-01-17T18:24:08.220Z,97914.41
2023-01-17T18:26:40.617Z,97911.59
2023-01-17T18:29:11.059Z,97916.31
2023-01-17T18:31:42.453Z,97913.88
2023-01-17T18:34:13.911Z,97904.03
2023-01-17T18:36:42.908Z,97907.25
2023-01-17T18:39:13.482Z,97912.13
2023-01-17T18:41:42.541Z,97901.28
2023-01-17T18:44:12.839Z,97906.31
2023-01-17T18:46:42.038Z,97905.50
2023-01-17T18:49:12.158Z,97903.16
2023-01-17T18:51:39.902Z,97896.87
2023-01-17T18:54:08.915Z,97895.28
2023-01-17T18:56:37.056Z,97896.06
2023-01-17T18:59:06.953Z,97892.28
2023-01-17T19:01:36.362Z,97893.72
2023-01-17T19:04:05.960Z,97882.44
2023-01-17T19:06:39.340Z,97878.78
2023-01-17T19:09:08.590Z,97875.00
2023-01-17T19:11:36.814Z,97868.75
2023-01-17T19:14:05.957Z,97863.94
2023-01-17T19:16:39.109Z,97859.44
2023-01-17T19:19:10.196Z,97862.56
2023-01-17T19:21:38.315Z,97864.81
2023-01-17T19:24:06.776Z,97855.75
2023-01-17T19:26:34.567Z,97864.41
2023-01-17T19:29:06.761Z,97851.13
2023-01-17T19:31:42.458Z,97855.78
2023-01-17T19:34:13.980Z,97848.53
2023-01-17T19:36:42.622Z,97842.28
2023-01-17T19:39:10.990Z,97839.47
2023-01-17T19:41:43.635Z,97822.13
2023-01-17T19:44:13.251Z,97830.41
2023-01-17T19:46:40.909Z,97826.16
2023-01-17T19:49:09.810Z,97822.72
2023-01-17T19:51:39.394Z,97820.09
2023-01-17T19:54:08.463Z,97815.25
2023-01-17T19:56:36.788Z,97812.03
2023-01-17T19:59:04.807Z,97808.97
2023-01-17T20:01:34.086Z,97797.50
2023-01-17T20:04:03.469Z,97801.75
2023-01-17T20:06:34.465Z,97791.88
2023-01-17T20:09:03.648Z,97794.47
2023-01-17T20:11:31.562Z,97787.22
2023-01-17T20:14:00.430Z,97789.63
2023-01-17T20:16:31.422Z,97798.87
2023-01-17T20:19:00.266Z,97787.53
2023-01-17T20:21:30.804Z,97782.91
2023-01-17T20:24:03.287Z,97799.41
2023-01-17T20:26:34.864Z,97800.97
2023-01-17T20:29:14.828Z,97795.94
2023-01-17T20:31:44.392Z,97786.66
2023-01-17T20:34:13.737Z,97787.66
2023-01-17T20:36:42.025Z,97799.94
2023-01-17T20:39:12.465Z,97795.50
2023-01-17T20:41:42.932Z,97799.75
2023-01-17T20:44:13.058Z,97795.94
2023-01-17T20:46:42.004Z,97792.13
2023-01-17T20:49:16.053Z,97804.25
2023-01-17T20:51:44.733Z,97793.94
2023-01-17T20:54:15.150Z,97800.97
2023-01-17T20:56:43.541Z,97794.53
2023-01-17T20:59:17.018Z,97801.62
2023-01-17T21:01:45.839Z,97804.84
2023-01-17T21:04:14.855Z,97811.09
2023-01-17T21:06:43.721Z,97809.72
2023-01-17T21:09:13.340Z,97818.56
2023-01-17T21:11:41.056Z,97828.22
2023-01-17T21:14:08.765Z,97832.06
2023-01-17T21:16:36.377Z,97833.47
2023-01-17T21:19:05.184Z,97828.81
2023-01-17T21:21:32.730Z,97818.34
2023-01-17T21:24:00.268Z,97809.66
2023-01-17T21:26:29.008Z,97807.84
2023-01-17T21:28:58.202Z,97789.13
2023-01-17T21:31:33.516Z,97766.75
2023-01-17T21:34:04.007Z,97725.84
2023-01-17T21:36:34.572Z,97719.63
2023-01-17T21:39:06.550Z,97725.72
2023-01-17T21:41:36.302Z,97748.75
2023-01-17T21:44:10.554Z,97751.81
2023-01-17T21:46:39.617Z,97755.28
2023-01-17T21:49:11.700Z,97764.19
2023-01-17T21:51:55.482Z,97759.34
2023-01-17T21:55:04.444Z,97764.19
2023-01-17T21:57:50.313Z,97760.16
2023-01-17T22:00:18.380Z,97759.56
2023-01-17T22:02:48.212Z,97785.66
2023-01-17T22:05:16.884Z,97796.16
2023-01-17T22:08:04.649Z,97793.13
2023-01-17T22:10:33.074Z,97789.31
2023-01-17T22:13:00.589Z,97794.16
2023-01-17T22:15:28.083Z,97808.88
2023-01-17T22:17:56.215Z,97815.16
2023-01-17T22:20:23.960Z,97827.03
2023-01-17T22:22:51.392Z,97822.41
2023-01-17T22:25:19.166Z,97838.97
2023-01-17T22:27:46.746Z,97846.41
2023-01-17T22:30:14.425Z,97857.69
2023-01-17T22:32:42.166Z,97868.38
2023-01-17T22:35:09.685Z,97870.16
2023-01-17T22:37:37.110Z,97873.97
2023-01-17T22:40:05.958Z,97879.19
2023-01-17T22:42:34.464Z,97891.06
2023-01-17T22:45:01.913Z,97894.47
2023-01-17T22:47:30.158Z,97883.75
2023-01-17T22:49:57.750Z,97899.03
2023-01-17T22:52:25.621Z,97896.63
2023-01-17T22:54:53.378Z,97905.44
2023-01-17T22:57:21.433Z,97907.50
2023-01-17T22:59:50.087Z,97906.06
2023-01-17T23:02:18.425Z,97918.16
2023-01-17T23:04:47.577Z,97921.59
2023-01-17T23:07:15.758Z,97932.09
2023-01-17T23:09:44.501Z,97931.47
2023-01-17T23:12:12.068Z,97932.91
2023-01-17T23:14:58.154Z,97934.94
2023-01-17T23:17:44.523Z,97932.31
2023-01-17T23:20:12.076Z,97934.56
2023-01-17T23:22:39.836Z,97951.94
2023-01-17T23:25:10.961Z,97942.87
2023-01-17T23:28:02.014Z,97943.69
2023-01-17T23:30:34.560Z,97939.25
2023-01-17T23:33:05.247Z,97932.59
2023-01-17T23:35:41.738Z,97943.06
2023-01-17T23:38:26.524Z,97947.28
2023-01-17T23:41:24.928Z,97959.59
2023-01-17T23:43:54.081Z,97971.72
2023-01-17T23:46:23.074Z,97976.97
2023-01-17T23:48:51.062Z,97980.19
2023-01-17T23:51:18.688Z,97981.00
2023-01-17T23:53:46.354Z,97984.81
2023-01-17T23:56:18.108Z,97987.44
2023-01-17T23:58:45.880Z,97989.25
